Time;durP1;ratioP1;P1;durP2;ratioP2;P2;SDS_P1;SDS_P2;PMS_P1;PMS_P2;Temp;Humidity;BMP_temperature;BMP_pressure;BME280_temperature;BME280_humidity;BME280_pressure;Samples;Min_cycle;Max_cycle;Signal;HPM_P1;HPM_P2
2023/01/31 00:00:18;;;;;;;19.02;2.20;;;;;;;;;;5055407;28;20065;-84
2023/01/31 00:02:44;;;;;;;13.80;2.40;;;;;;;;;;5049384;28;20443;-84
2023/01/31 00:05:11;;;;;;;18.48;2.35;;;;;;;;;;5053870;28;20042;-85
2023/01/31 00:07:37;;;;;;;10.77;2.22;;;;;;;;;;5054140;28;20868;-84
2023/01/31 00:10:04;;;;;;;20.92;2.33;;;;;;;;;;5053152;28;20054;-85
2023/01/31 00:12:30;;;;;;;15.20;2.10;;;;;;;;;;5055336;28;20042;-84
2023/01/31 00:14:57;;;;;;;13.85;2.33;;;;;;;;;;5056211;28;20088;-85
2023/01/31 00:17:23;;;;;;;22.13;2.63;;;;;;;;;;5058911;28;20053;-84
2023/01/31 00:19:49;;;;;;;11.15;2.42;;;;;;;;;;5056120;28;20594;-84
2023/01/31 00:22:16;;;;;;;23.67;3.08;;;;;;;;;;5050709;28;20061;-87
2023/01/31 00:24:42;;;;;;;16.40;2.42;;;;;;;;;;5055181;28;20041;-86
2023/01/31 00:27:08;;;;;;;16.75;2.22;;;;;;;;;;5054739;28;20060;-86
2023/01/31 00:29:35;;;;;;;20.33;2.55;;;;;;;;;;5053714;28;20092;-85
2023/01/31 00:32:02;;;;;;;11.02;1.85;;;;;;;;;;5053098;28;20058;-84
2023/01/31 00:34:29;;;;;;;14.02;2.05;;;;;;;;;;5056091;28;20072;-86
2023/01/31 00:36:55;;;;;;;16.30;2.35;;;;;;;;;;5053257;28;20088;-83
2023/01/31 00:39:22;;;;;;;19.73;2.70;;;;;;;;;;5056305;28;20049;-85
2023/01/31 00:41:48;;;;;;;12.80;1.90;;;;;;;;;;5054632;28;20069;-83
2023/01/31 00:44:15;;;;;;;10.32;2.00;;;;;;;;;;5053658;28;20064;-86
2023/01/31 00:46:41;;;;;;;17.67;2.17;;;;;;;;;;5056199;28;20072;-86
2023/01/31 00:49:08;;;;;;;14.68;2.70;;;;;;;;;;5051809;28;20159;-85
2023/01/31 00:51:34;;;;;;;16.60;4.30;;;;;;;;;;5053730;28;20057;-85
2023/01/31 00:54:01;;;;;;;16.15;2.50;;;;;;;;;;5054749;28;20096;-83
2023/01/31 00:56:27;;;;;;;13.93;2.13;;;;;;;;;;5055769;28;20097;-84
2023/01/31 00:58:54;;;;;;;15.95;1.90;;;;;;;;;;5055120;28;20551;-85
2023/01/31 01:01:25;;;;;;;13.05;2.17;;;;;;;;;;5046890;28;20062;-83
2023/01/31 01:03:53;;;;;;;9.60;1.60;;;;;;;;;;5056114;28;20136;-86
2023/01/31 01:06:19;;;;;;;14.65;2.28;;;;;;;;;;5055737;28;20065;-83
2023/01/31 01:08:46;;;;;;;15.35;2.67;;;;;;;;;;5054059;28;20061;-85
2023/01/31 01:11:15;;;;;;;13.88;2.30;;;;;;;;;;5054785;28;20054;-85
2023/01/31 01:13:42;;;;;;;17.35;2.08;;;;;;;;;;5054229;28;20095;-83
2023/01/31 01:16:29;;;;;;;18.95;2.15;;;;;;;;;;5052781;28;20049;-87
2023/01/31 01:18:55;;;;;;;10.77;1.92;;;;;;;;;;5041679;28;20057;-85
2023/01/31 01:21:28;;;;;;;14.35;2.03;;;;;;;;;;5057055;28;20084;-84
2023/01/31 01:23:56;;;;;;;19.25;2.30;;;;;;;;;;5057237;28;20050;-86
2023/01/31 01:26:24;;;;;;;12.13;2.35;;;;;;;;;;5056806;28;20584;-84
2023/01/31 01:28:51;;;;;;;16.63;2.30;;;;;;;;;;5052649;28;20049;-84
2023/01/31 01:31:18;;;;;;;14.13;2.10;;;;;;;;;;5054306;28;20046;-83
2023/01/31 01:33:46;;;;;;;11.60;2.15;;;;;;;;;;5056548;28;20085;-84
2023/01/31 01:36:16;;;;;;;14.70;2.33;;;;;;;;;;5055493;28;20084;-84
2023/01/31 01:38:43;;;;;;;16.30;2.45;;;;;;;;;;5054423;28;20053;-83
2023/01/31 01:41:11;;;;;;;16.35;2.33;;;;;;;;;;5055285;28;20583;-84
2023/01/31 01:43:38;;;;;;;14.30;1.83;;;;;;;;;;5056384;28;20050;-83
2023/01/31 01:46:06;;;;;;;11.82;2.50;;;;;;;;;;5055040;28;20131;-84
2023/01/31 01:48:32;;;;;;;11.70;2.25;;;;;;;;;;5053691;28;20057;-86
2023/01/31 01:51:01;;;;;;;11.90;2.08;;;;;;;;;;5057112;28;20523;-85
2023/01/31 01:53:27;;;;;;;19.58;2.30;;;;;;;;;;5045241;28;20060;-84
2023/01/31 01:55:56;;;;;;;16.25;2.03;;;;;;;;;;5040789;28;20071;-86
2023/01/31 01:58:25;;;;;;;12.52;2.05;;;;;;;;;;5054980;28;20062;-87
2023/01/31 02:00:52;;;;;;;15.27;1.88;;;;;;;;;;5052911;28;20074;-84
2023/01/31 02:03:19;;;;;;;10.27;2.53;;;;;;;;;;5053927;28;20081;-86
2023/01/31 02:05:50;;;;;;;10.23;2.13;;;;;;;;;;5053898;28;20049;-85
2023/01/31 02:08:18;;;;;;;14.40;2.28;;;;;;;;;;5057597;28;20057;-85
2023/01/31 02:10:50;;;;;;;11.23;2.53;;;;;;;;;;5057979;28;20058;-85
2023/01/31 02:13:18;;;;;;;20.63;2.85;;;;;;;;;;5054925;28;20058;-84
2023/01/31 02:15:44;;;;;;;14.77;1.92;;;;;;;;;;5053488;28;20055;-83
2023/01/31 02:18:11;;;;;;;8.77;1.95;;;;;;;;;;5058888;28;20037;-85
2023/01/31 02:20:47;;;;;;;16.30;2.40;;;;;;;;;;5049828;28;20069;-84
2023/01/31 02:23:37;;;;;;;13.57;2.10;;;;;;;;;;5056183;28;20089;-86
2023/01/31 02:26:31;;;;;;;13.02;1.75;;;;;;;;;;5035179;28;20772;-85
2023/01/31 02:29:16;;;;;;;21.30;2.33;;;;;;;;;;5053312;28;20113;-84
2023/01/31 02:32:01;;;;;;;19.02;2.20;;;;;;;;;;5056489;28;20051;-86
2023/01/31 02:34:31;;;;;;;15.38;2.55;;;;;;;;;;5056848;28;20057;-83
2023/01/31 02:37:12;;;;;;;16.33;2.55;;;;;;;;;;5054117;28;20079;-85
2023/01/31 02:40:11;;;;;;;12.63;2.38;;;;;;;;;;5054220;28;20049;-85
2023/01/31 02:42:58;;;;;;;11.25;2.72;;;;;;;;;;5021264;28;20083;-83
2023/01/31 02:45:29;;;;;;;17.08;2.75;;;;;;;;;;5046762;28;20803;-84
2023/01/31 02:48:11;;;;;;;16.20;2.90;;;;;;;;;;5055604;28;20962;-84
2023/01/31 02:50:45;;;;;;;24.48;3.13;;;;;;;;;;5057624;28;20120;-83
2023/01/31 02:53:25;;;;;;;17.02;3.17;;;;;;;;;;5055020;28;20053;-86
2023/01/31 02:58:42;;;;;;;20.73;3.05;;;;;;;;;;5052571;28;20049;-85
2023/01/31 03:01:11;;;;;;;21.60;2.78;;;;;;;;;;5039115;28;20057;-86
2023/01/31 03:03:40;;;;;;;21.63;2.83;;;;;;;;;;5038699;28;20068;-85
2023/01/31 03:06:22;;;;;;;15.90;3.00;;;;;;;;;;5053186;28;20081;-85
2023/01/31 03:08:54;;;;;;;22.40;3.17;;;;;;;;;;5057669;28;20045;-86
2023/01/31 03:11:24;;;;;;;19.13;3.42;;;;;;;;;;5055846;28;20065;-86
2023/01/31 03:14:03;;;;;;;22.00;3.83;;;;;;;;;;5053444;28;20049;-83
2023/01/31 03:19:24;;;;;;;19.98;3.60;;;;;;;;;;5051458;28;20045;-85
2023/01/31 03:21:56;;;;;;;18.08;3.50;;;;;;;;;;5046582;28;20682;-84
2023/01/31 03:24:25;;;;;;;16.42;3.78;;;;;;;;;;5055958;28;20089;-83
2023/01/31 03:26:54;;;;;;;22.90;4.95;;;;;;;;;;5055601;28;20161;-83
2023/01/31 03:29:22;;;;;;;18.23;4.38;;;;;;;;;;5055756;28;20859;-83
2023/01/31 03:31:57;;;;;;;23.83;4.38;;;;;;;;;;5057680;28;20053;-84
2023/01/31 03:34:24;;;;;;;16.05;4.00;;;;;;;;;;5053860;28;20050;-85
2023/01/31 03:36:50;;;;;;;14.73;3.75;;;;;;;;;;5054441;28;20089;-85
2023/01/31 03:39:36;;;;;;;21.38;4.32;;;;;;;;;;5053975;28;20578;-84
2023/01/31 03:42:06;;;;;;;22.58;5.18;;;;;;;;;;5041681;28;20105;-85
2023/01/31 03:44:40;;;;;;;18.17;4.77;;;;;;;;;;5043913;28;20100;-87
2023/01/31 03:47:26;;;;;;;20.75;4.95;;;;;;;;;;5053634;28;20268;-84
2023/01/31 03:49:54;;;;;;;21.65;4.65;;;;;;;;;;5055302;28;20041;-87
2023/01/31 03:52:25;;;;;;;23.30;5.15;;;;;;;;;;5058225;28;20081;-86
2023/01/31 03:54:57;;;;;;;21.00;4.78;;;;;;;;;;5054900;28;20053;-84
2023/01/31 03:57:25;;;;;;;23.30;5.45;;;;;;;;;;5056627;28;20061;-85
2023/01/31 03:59:54;;;;;;;23.48;4.90;;;;;;;;;;5055580;28;20058;-88
2023/01/31 04:02:23;;;;;;;24.63;4.95;;;;;;;;;;5047358;28;20500;-83
2023/01/31 04:04:53;;;;;;;31.45;5.93;;;;;;;;;;5053924;28;20579;-86
2023/01/31 04:07:19;;;;;;;25.30;5.07;;;;;;;;;;5056174;28;20073;-84
2023/01/31 04:09:46;;;;;;;29.67;5.75;;;;;;;;;;5059776;28;20053;-85
2023/01/31 04:12:13;;;;;;;24.00;5.35;;;;;;;;;;5057342;28;20057;-85
2023/01/31 04:14:40;;;;;;;31.98;5.95;;;;;;;;;;5056082;28;20053;-83
2023/01/31 04:17:06;;;;;;;32.08;6.07;;;;;;;;;;5057725;28;20575;-86
2023/01/31 04:19:33;;;;;;;23.15;5.22;;;;;;;;;;5059295;28;20057;-86
2023/01/31 04:21:59;;;;;;;24.50;5.88;;;;;;;;;;5058820;28;20057;-84
2023/01/31 04:24:26;;;;;;;27.00;6.78;;;;;;;;;;5057564;28;20076;-84
2023/01/31 04:26:52;;;;;;;24.40;5.68;;;;;;;;;;5057508;28;20057;-83
2023/01/31 04:29:18;;;;;;;28.27;5.43;;;;;;;;;;5059632;28;20436;-84
2023/01/31 04:31:46;;;;;;;33.45;6.22;;;;;;;;;;5060853;28;20045;-86
2023/01/31 04:34:12;;;;;;;20.95;6.57;;;;;;;;;;5062324;28;20057;-84
2023/01/31 04:36:39;;;;;;;23.98;5.97;;;;;;;;;;5058893;28;20081;-85
2023/01/31 04:39:05;;;;;;;26.58;5.95;;;;;;;;;;5059425;28;20136;-84
2023/01/31 04:41:32;;;;;;;27.77;6.47;;;;;;;;;;5060251;28;20101;-86
2023/01/31 04:43:58;;;;;;;19.67;5.82;;;;;;;;;;5062288;28;20050;-84
2023/01/31 04:46:24;;;;;;;27.75;6.63;;;;;;;;;;5059906;28;20059;-84
2023/01/31 04:48:51;;;;;;;34.35;7.25;;;;;;;;;;5062174;28;20053;-85
2023/01/31 04:51:17;;;;;;;29.65;6.97;;;;;;;;;;5058715;28;20085;-84
2023/01/31 04:53:44;;;;;;;26.05;6.28;;;;;;;;;;5060309;28;20096;-85
2023/01/31 04:56:10;;;;;;;24.63;6.28;;;;;;;;;;5058022;28;20064;-86
2023/01/31 04:58:36;;;;;;;31.27;6.05;;;;;;;;;;5060750;28;20049;-87
2023/01/31 05:01:03;;;;;;;23.23;6.28;;;;;;;;;;5058028;28;20065;-84
2023/01/31 05:03:32;;;;;;;27.50;6.00;;;;;;;;;;5063603;28;20049;-85
2023/01/31 05:05:59;;;;;;;23.77;6.32;;;;;;;;;;5060245;28;20049;-87
2023/01/31 05:08:25;;;;;;;30.13;6.95;;;;;;;;;;5063378;28;20109;-86
2023/01/31 05:11:01;;;;;;;27.70;6.93;;;;;;;;;;5060451;28;20060;-84
2023/01/31 05:13:31;;;;;;;35.75;7.38;;;;;;;;;;5061489;28;20097;-85
2023/01/31 05:15:58;;;;;;;24.58;6.32;;;;;;;;;;5058216;28;20041;-84
2023/01/31 05:18:24;;;;;;;27.20;6.18;;;;;;;;;;5061944;28;20072;-88
2023/01/31 05:20:51;;;;;;;27.48;6.28;;;;;;;;;;5077587;28;20040;-86
2023/01/31 05:23:17;;;;;;;23.20;6.28;;;;;;;;;;5041363;28;20049;-85
2023/01/31 05:25:44;;;;;;;30.30;6.40;;;;;;;;;;5062777;28;20350;-86
2023/01/31 05:28:11;;;;;;;28.10;7.07;;;;;;;;;;5063786;28;20155;-87
2023/01/31 05:30:38;;;;;;;33.78;6.95;;;;;;;;;;5061648;28;20083;-87
2023/01/31 05:33:04;;;;;;;29.08;5.57;;;;;;;;;;5061017;28;20528;-87
2023/01/31 05:35:31;;;;;;;24.70;6.57;;;;;;;;;;5055337;28;20040;-83
2023/01/31 05:37:58;;;;;;;31.15;6.78;;;;;;;;;;5063137;28;21047;-85
2023/01/31 05:40:24;;;;;;;24.42;6.90;;;;;;;;;;5061365;28;20042;-85
2023/01/31 05:42:54;;;;;;;26.98;5.65;;;;;;;;;;5062902;28;20060;-85
2023/01/31 05:45:20;;;;;;;20.57;6.40;;;;;;;;;;5061290;28;20053;-84
2023/01/31 05:47:48;;;;;;;25.63;6.15;;;;;;;;;;5061157;28;20042;-85
2023/01/31 05:50:14;;;;;;;29.05;6.32;;;;;;;;;;5059905;28;20061;-85
2023/01/31 05:52:41;;;;;;;23.00;5.90;;;;;;;;;;5061576;28;20064;-85
2023/01/31 05:55:07;;;;;;;26.15;6.55;;;;;;;;;;5063388;28;20068;-87
2023/01/31 05:57:34;;;;;;;36.08;6.70;;;;;;;;;;5063739;28;20511;-86
2023/01/31 06:00:00;;;;;;;28.65;6.18;;;;;;;;;;5059800;28;20136;-85
2023/01/31 06:02:27;;;;;;;26.58;6.72;;;;;;;;;;5062654;28;20038;-86
2023/01/31 06:04:54;;;;;;;22.85;5.78;;;;;;;;;;5064115;28;20069;-87
2023/01/31 06:07:22;;;;;;;36.13;6.43;;;;;;;;;;5062994;28;20033;-85
2023/01/31 06:09:48;;;;;;;31.67;6.38;;;;;;;;;;5055219;28;20649;-85
2023/01/31 06:12:15;;;;;;;21.15;5.57;;;;;;;;;;5048662;28;20064;-83
2023/01/31 06:14:41;;;;;;;28.98;6.63;;;;;;;;;;5058856;28;20045;-82
2023/01/31 06:17:08;;;;;;;25.40;6.15;;;;;;;;;;5049257;28;20068;-84
2023/01/31 06:19:34;;;;;;;24.17;5.03;;;;;;;;;;5063426;28;20049;-84
2023/01/31 06:22:01;;;;;;;22.83;5.82;;;;;;;;;;5059003;28;20930;-85
2023/01/31 06:24:27;;;;;;;27.35;6.95;;;;;;;;;;5059195;28;20057;-83
2023/01/31 06:26:54;;;;;;;25.02;5.25;;;;;;;;;;5060190;28;20038;-85
2023/01/31 06:29:20;;;;;;;28.70;5.28;;;;;;;;;;5063030;28;20566;-83
2023/01/31 06:31:46;;;;;;;22.55;5.30;;;;;;;;;;5060467;28;20053;-84
2023/01/31 06:34:13;;;;;;;20.85;5.38;;;;;;;;;;5060063;28;20946;-83
2023/01/31 06:36:39;;;;;;;23.20;5.65;;;;;;;;;;5061312;28;20132;-86
2023/01/31 06:39:06;;;;;;;29.98;5.60;;;;;;;;;;5061706;28;20060;-86
2023/01/31 06:41:32;;;;;;;26.48;5.63;;;;;;;;;;5060569;28;20913;-84
2023/01/31 06:43:59;;;;;;;22.60;5.28;;;;;;;;;;5059863;28;20057;-84
2023/01/31 06:46:25;;;;;;;26.95;6.03;;;;;;;;;;5056615;28;20046;-84
2023/01/31 06:48:51;;;;;;;19.30;4.60;;;;;;;;;;5054917;28;20041;-82
2023/01/31 06:51:21;;;;;;;24.10;4.82;;;;;;;;;;5058075;28;20512;-82
2023/01/31 06:53:47;;;;;;;26.83;5.65;;;;;;;;;;5052917;28;20061;-84
2023/01/31 06:56:14;;;;;;;33.13;5.10;;;;;;;;;;5054676;28;20428;-83
2023/01/31 06:58:40;;;;;;;16.83;5.03;;;;;;;;;;5054943;28;20061;-82
2023/01/31 07:01:08;;;;;;;25.77;4.95;;;;;;;;;;5059053;28;20057;-83
2023/01/31 07:03:34;;;;;;;25.02;5.07;;;;;;;;;;5058036;28;20659;-82
2023/01/31 07:06:01;;;;;;;19.52;4.32;;;;;;;;;;5059193;28;20264;-83
2023/01/31 07:08:27;;;;;;;13.68;4.13;;;;;;;;;;5059948;28;20072;-85
2023/01/31 07:10:54;;;;;;;22.25;4.93;;;;;;;;;;5060341;28;20065;-84
2023/01/31 07:13:20;;;;;;;23.52;4.65;;;;;;;;;;5058669;28;20084;-82
2023/01/31 07:15:46;;;;;;;19.08;5.70;;;;;;;;;;5058537;28;20049;-84
2023/01/31 07:18:13;;;;;;;21.85;5.13;;;;;;;;;;5056611;28;20045;-81
2023/01/31 07:20:40;;;;;;;19.85;5.25;;;;;;;;;;5056156;28;20053;-79
2023/01/31 07:23:06;;;;;;;22.08;5.35;;;;;;;;;;5050508;28;20575;-80
2023/01/31 07:25:33;;;;;;;22.73;5.53;;;;;;;;;;5058215;28;20053;-79
2023/01/31 07:27:59;;;;;;;19.35;5.60;;;;;;;;;;5053746;28;20053;-79
2023/01/31 07:30:26;;;;;;;19.23;5.28;;;;;;;;;;5055794;28;20112;-79
2023/01/31 07:32:53;;;;;;;24.88;5.00;;;;;;;;;;5049624;28;20058;-79
2023/01/31 07:35:20;;;;;;;31.85;6.05;;;;;;;;;;5058580;28;20069;-79
2023/01/31 07:37:46;;;;;;;17.63;6.30;;;;;;;;;;5055538;28;21223;-79
2023/01/31 07:40:14;;;;;;;21.77;5.25;;;;;;;;;;5058192;28;20069;-79
2023/01/31 07:42:40;;;;;;;21.90;6.32;;;;;;;;;;5060369;28;20064;-79
2023/01/31 07:45:10;;;;;;;24.90;5.93;;;;;;;;;;5059999;28;20051;-80
2023/01/31 07:47:49;;;;;;;21.95;5.00;;;;;;;;;;5058446;28;20062;-79
2023/01/31 07:50:16;;;;;;;27.70;5.57;;;;;;;;;;5056664;28;20053;-80
2023/01/31 07:52:42;;;;;;;22.17;5.85;;;;;;;;;;5052069;28;20029;-79
2023/01/31 07:55:09;;;;;;;21.00;6.15;;;;;;;;;;5055666;28;20068;-79
2023/01/31 07:57:35;;;;;;;20.65;6.72;;;;;;;;;;5059675;28;20379;-78
2023/01/31 08:00:02;;;;;;;22.33;6.35;;;;;;;;;;5050520;28;20053;-79
2023/01/31 08:05:16;;;;;;;23.92;5.53;;;;;;;;;;5055961;28;20049;-79
2023/01/31 08:08:09;;;;;;;23.10;6.05;;;;;;;;;;5052905;28;20060;-80
2023/01/31 08:10:33;;;;;;;28.02;5.55;;;;;;;;;;5058907;28;20167;-79
2023/01/31 08:12:59;;;;;;;31.42;7.40;;;;;;;;;;5051223;28;20822;-80
2023/01/31 08:15:26;;;;;;;24.70;5.82;;;;;;;;;;5055135;28;20112;-79
2023/01/31 08:17:52;;;;;;;29.42;6.95;;;;;;;;;;5058168;28;20520;-79
2023/01/31 08:20:19;;;;;;;31.17;6.57;;;;;;;;;;5060302;28;20448;-79
2023/01/31 08:22:45;;;;;;;23.33;6.45;;;;;;;;;;5058460;28;20965;-79
2023/01/31 08:25:12;;;;;;;22.27;5.32;;;;;;;;;;5059719;28;20093;-79
2023/01/31 08:27:41;;;;;;;26.65;7.20;;;;;;;;;;5058593;28;20131;-80
2023/01/31 08:30:08;;;;;;;22.67;5.75;;;;;;;;;;5050409;28;20121;-80
2023/01/31 08:32:34;;;;;;;17.58;5.07;;;;;;;;;;5055044;28;20050;-80
2023/01/31 08:35:01;;;;;;;24.17;5.28;;;;;;;;;;5054723;28;20832;-83
2023/01/31 08:37:27;;;;;;;21.20;6.15;;;;;;;;;;5059984;28;20071;-80
2023/01/31 08:39:54;;;;;;;22.05;6.45;;;;;;;;;;5063538;28;20064;-81
2023/01/31 08:42:20;;;;;;;21.38;6.10;;;;;;;;;;5061195;28;20057;-81
2023/01/31 08:44:47;;;;;;;29.27;6.18;;;;;;;;;;5061517;28;20065;-80
2023/01/31 08:47:13;;;;;;;21.42;5.28;;;;;;;;;;5058171;28;20092;-81
2023/01/31 08:49:42;;;;;;;19.75;5.07;;;;;;;;;;5056705;28;20050;-80
2023/01/31 08:52:09;;;;;;;26.83;5.13;;;;;;;;;;5056665;28;20116;-81
2023/01/31 08:54:35;;;;;;;18.27;4.57;;;;;;;;;;5054748;28;20105;-80
2023/01/31 08:57:02;;;;;;;21.95;5.40;;;;;;;;;;5051472;28;20068;-80
2023/01/31 08:59:28;;;;;;;22.65;5.57;;;;;;;;;;5054412;28;20057;-81
2023/01/31 09:01:55;;;;;;;17.35;5.38;;;;;;;;;;5054311;28;20065;-80
2023/01/31 09:04:21;;;;;;;17.38;5.22;;;;;;;;;;5056016;28;20050;-80
2023/01/31 09:06:48;;;;;;;19.30;5.15;;;;;;;;;;5051037;28;20041;-80
2023/01/31 09:09:16;;;;;;;18.08;4.80;;;;;;;;;;5050055;28;20057;-80
2023/01/31 09:11:44;;;;;;;22.13;5.57;;;;;;;;;;5051994;28;20154;-80
2023/01/31 09:14:11;;;;;;;20.75;4.72;;;;;;;;;;5051786;28;20065;-80
2023/01/31 09:16:37;;;;;;;22.92;4.57;;;;;;;;;;5051994;28;20065;-80
2023/01/31 09:19:07;;;;;;;23.77;5.70;;;;;;;;;;5052574;28;20053;-80
2023/01/31 09:21:33;;;;;;;16.63;4.93;;;;;;;;;;5053014;28;20943;-80
2023/01/31 09:24:02;;;;;;;21.27;6.03;;;;;;;;;;5046849;28;20058;-80
2023/01/31 09:26:29;;;;;;;24.17;5.65;;;;;;;;;;5052764;28;20040;-81
2023/01/31 09:28:57;;;;;;;19.95;5.45;;;;;;;;;;5049179;28;20057;-81
2023/01/31 09:31:23;;;;;;;18.08;5.65;;;;;;;;;;5043931;28;20064;-81
2023/01/31 09:33:50;;;;;;;14.95;4.40;;;;;;;;;;5049104;28;20057;-81
2023/01/31 09:36:18;;;;;;;17.08;4.68;;;;;;;;;;5049350;28;20049;-81
2023/01/31 09:38:44;;;;;;;20.58;4.78;;;;;;;;;;5048987;28;20049;-81
2023/01/31 09:41:20;;;;;;;20.00;5.20;;;;;;;;;;5049166;28;20038;-82
2023/01/31 09:43:49;;;;;;;22.75;4.80;;;;;;;;;;5038759;28;20595;-80
2023/01/31 09:46:18;;;;;;;19.35;5.10;;;;;;;;;;5052424;28;20637;-80
2023/01/31 09:48:47;;;;;;;24.90;5.53;;;;;;;;;;5058436;28;20062;-81
2023/01/31 09:51:15;;;;;;;22.75;5.55;;;;;;;;;;5053984;28;20107;-81
2023/01/31 09:53:43;;;;;;;18.38;4.80;;;;;;;;;;5048332;28;20058;-81
2023/01/31 09:56:20;;;;;;;23.88;5.72;;;;;;;;;;5050367;28;20148;-81
2023/01/31 09:58:54;;;;;;;16.42;5.28;;;;;;;;;;5050252;28;20061;-81
2023/01/31 10:01:42;;;;;;;22.48;6.25;;;;;;;;;;5047411;28;20050;-81
2023/01/31 10:04:12;;;;;;;21.70;5.75;;;;;;;;;;5047165;28;20185;-81
2023/01/31 10:06:41;;;;;;;17.92;5.63;;;;;;;;;;5049517;28;20123;-81
2023/01/31 10:09:12;;;;;;;22.40;5.47;;;;;;;;;;5050277;28;20085;-81
2023/01/31 10:11:43;;;;;;;20.00;6.45;;;;;;;;;;5050814;28;20517;-81
2023/01/31 10:14:09;;;;;;;;;;;;;;;;;;5051637;28;20056;-81
2023/01/31 10:16:45;;;;;;;26.38;6.07;;;;;;;;;;5049659;28;46143;-81
2023/01/31 10:19:14;;;;;;;22.00;6.07;;;;;;;;;;5046555;28;20052;-81
2023/01/31 10:21:42;;;;;;;22.35;6.28;;;;;;;;;;5050506;28;20073;-81
2023/01/31 10:24:22;;;;;;;16.27;5.80;;;;;;;;;;5055355;28;20100;-81
2023/01/31 10:26:51;;;;;;;22.10;5.05;;;;;;;;;;5046850;28;20045;-81
2023/01/31 10:29:33;;;;;;;20.52;5.53;;;;;;;;;;5054827;28;20088;-81
2023/01/31 10:32:04;;;;;;;18.70;5.22;;;;;;;;;;5055607;28;20108;-82
2023/01/31 10:34:35;;;;;;;18.27;5.85;;;;;;;;;;5053588;28;20065;-82
2023/01/31 10:37:04;;;;;;;14.77;5.40;;;;;;;;;;5052693;28;20080;-81
2023/01/31 10:39:34;;;;;;;21.40;5.50;;;;;;;;;;5053832;28;20092;-81
2023/01/31 10:42:19;;;;;;;27.23;6.35;;;;;;;;;;5047183;28;20064;-81
2023/01/31 10:45:04;;;;;;;20.75;5.47;;;;;;;;;;5047801;28;20053;-81
2023/01/31 10:47:33;;;;;;;19.77;5.50;;;;;;;;;;5047714;28;20539;-82
2023/01/31 10:50:01;;;;;;;20.70;5.90;;;;;;;;;;5048201;28;20092;-81
2023/01/31 10:52:57;;;;;;;20.15;5.65;;;;;;;;;;5043786;28;20145;-82
2023/01/31 10:55:36;;;;;;;16.08;5.65;;;;;;;;;;5027274;28;20165;-82
2023/01/31 10:58:03;;;;;;;20.38;5.25;;;;;;;;;;5042739;28;20140;-82
2023/01/31 11:00:31;;;;;;;17.70;4.85;;;;;;;;;;5049771;28;20127;-81
2023/01/31 11:02:58;;;;;;;18.83;5.03;;;;;;;;;;5052749;28;20084;-81
2023/01/31 11:05:26;;;;;;;21.77;5.70;;;;;;;;;;5052978;28;20085;-81
2023/01/31 11:07:54;;;;;;;14.57;4.68;;;;;;;;;;5046573;28;20064;-81
2023/01/31 11:10:23;;;;;;;22.55;5.20;;;;;;;;;;5051552;28;20127;-81
2023/01/31 11:12:58;;;;;;;18.40;4.97;;;;;;;;;;5045200;28;20168;-81
2023/01/31 11:15:27;;;;;;;18.95;4.72;;;;;;;;;;5052668;28;20060;-81
2023/01/31 11:17:56;;;;;;;20.30;4.97;;;;;;;;;;5041587;28;20044;-81
2023/01/31 11:20:34;;;;;;;25.40;4.85;;;;;;;;;;5055448;28;20113;-81
2023/01/31 11:23:01;;;;;;;16.90;4.13;;;;;;;;;;5048831;28;20076;-81
2023/01/31 11:25:29;;;;;;;25.80;4.80;;;;;;;;;;5045735;28;20056;-81
2023/01/31 11:27:57;;;;;;;19.33;3.50;;;;;;;;;;5053648;28;20030;-81
2023/01/31 11:30:31;;;;;;;21.10;4.20;;;;;;;;;;5051585;28;20136;-81
2023/01/31 11:32:57;;;;;;;19.45;4.20;;;;;;;;;;5053909;28;20053;-81
2023/01/31 11:35:28;;;;;;;12.43;3.22;;;;;;;;;;5055218;28;22169;-81
2023/01/31 11:37:59;;;;;;;15.73;4.28;;;;;;;;;;5061233;28;20057;-81
2023/01/31 11:40:26;;;;;;;20.00;4.32;;;;;;;;;;5055735;28;20089;-81
2023/01/31 11:42:54;;;;;;;21.38;4.25;;;;;;;;;;5044047;28;20057;-81
2023/01/31 11:45:22;;;;;;;19.00;4.30;;;;;;;;;;5047775;28;20065;-81
2023/01/31 11:47:50;;;;;;;17.50;4.15;;;;;;;;;;5055810;28;20092;-80
2023/01/31 11:50:31;;;;;;;32.67;4.82;;;;;;;;;;5057952;28;20065;-80
2023/01/31 11:53:02;;;;;;;23.25;4.80;;;;;;;;;;5055822;28;20056;-81
2023/01/31 11:55:35;;;;;;;18.73;4.70;;;;;;;;;;5056126;28;20558;-81
2023/01/31 11:58:05;;;;;;;27.27;5.65;;;;;;;;;;5052611;28;20060;-82
2023/01/31 12:00:32;;;;;;;24.15;5.63;;;;;;;;;;5060240;28;20053;-80
2023/01/31 12:03:01;;;;;;;17.05;4.90;;;;;;;;;;5063101;28;20393;-80
2023/01/31 12:05:40;;;;;;;24.23;5.43;;;;;;;;;;5060245;28;21416;-80
2023/01/31 12:08:28;;;;;;;26.37;5.20;;;;;;;;;;5056811;28;20060;-80
2023/01/31 12:10:56;;;;;;;19.50;4.82;;;;;;;;;;5055910;28;20235;-80
2023/01/31 12:13:22;;;;;;;18.67;5.30;;;;;;;;;;5061554;28;20065;-81
2023/01/31 12:15:54;;;;;;;15.50;3.92;;;;;;;;;;5061951;28;20044;-80
2023/01/31 12:18:31;;;;;;;21.15;5.13;;;;;;;;;;5059371;28;20068;-80
2023/01/31 12:21:08;;;;;;;22.30;4.63;;;;;;;;;;5055287;28;20680;-80
2023/01/31 12:23:43;;;;;;;19.38;4.72;;;;;;;;;;5053417;28;20744;-80
2023/01/31 12:26:17;;;;;;;17.98;3.97;;;;;;;;;;5050603;28;20065;-79
2023/01/31 12:28:50;;;;;;;23.23;5.40;;;;;;;;;;5054562;28;20060;-79
2023/01/31 12:31:32;;;;;;;11.65;4.07;;;;;;;;;;5053076;28;20136;-80
2023/01/31 12:34:05;;;;;;;21.25;4.97;;;;;;;;;;5056446;28;20805;-79
2023/01/31 12:36:49;;;;;;;15.25;4.22;;;;;;;;;;5055911;28;20064;-80
2023/01/31 12:39:35;;;;;;;28.42;4.97;;;;;;;;;;5053347;28;20053;-79
2023/01/31 12:42:34;;;;;;;19.85;4.35;;;;;;;;;;5044879;28;20057;-79
2023/01/31 12:45:06;;;;;;;14.98;3.85;;;;;;;;;;5028895;28;20791;-80
2023/01/31 12:47:38;;;;;;;14.57;4.20;;;;;;;;;;5053522;28;20072;-81
2023/01/31 12:50:11;;;;;;;20.98;4.00;;;;;;;;;;5057662;28;20785;-79
2023/01/31 12:52:40;;;;;;;15.30;4.00;;;;;;;;;;5054959;28;20056;-80
2023/01/31 12:55:10;;;;;;;14.15;3.45;;;;;;;;;;5050884;28;20060;-80
2023/01/31 12:57:40;;;;;;;18.40;3.97;;;;;;;;;;5051974;28;20046;-79
2023/01/31 13:00:24;;;;;;;19.20;4.17;;;;;;;;;;5049175;28;20156;-80
2023/01/31 13:03:13;;;;;;;23.10;4.40;;;;;;;;;;5048145;28;20060;-80
2023/01/31 13:05:43;;;;;;;23.20;3.70;;;;;;;;;;5053217;28;20049;-80
2023/01/31 13:08:28;;;;;;;21.13;4.10;;;;;;;;;;5054773;28;20041;-80
2023/01/31 13:11:02;;;;;;;11.60;3.05;;;;;;;;;;5055975;28;20076;-80
2023/01/31 13:13:49;;;;;;;23.45;3.97;;;;;;;;;;5050340;28;20096;-81
2023/01/31 13:16:19;;;;;;;20.60;3.55;;;;;;;;;;5052905;28;20103;-79
2023/01/31 13:18:47;;;;;;;20.70;3.47;;;;;;;;;;5042741;28;20038;-79
2023/01/31 13:21:16;;;;;;;16.13;3.65;;;;;;;;;;5055950;28;20107;-80
2023/01/31 13:23:45;;;;;;;14.85;3.83;;;;;;;;;;5053056;28;20096;-80
2023/01/31 13:26:15;;;;;;;19.30;3.72;;;;;;;;;;5052612;28;20973;-80
2023/01/31 13:28:46;;;;;;;15.65;2.90;;;;;;;;;;5046817;28;21011;-80
2023/01/31 13:31:27;;;;;;;23.67;3.45;;;;;;;;;;5052471;28;20433;-80
2023/01/31 13:34:00;;;;;;;11.45;3.60;;;;;;;;;;5051395;28;20108;-80
2023/01/31 13:36:30;;;;;;;15.27;3.15;;;;;;;;;;5050472;28;20100;-80
2023/01/31 13:38:58;;;;;;;18.15;3.17;;;;;;;;;;5052319;28;20081;-80
2023/01/31 13:41:24;;;;;;;15.82;3.22;;;;;;;;;;5054195;28;20181;-80
2023/01/31 13:43:51;;;;;;;17.05;3.50;;;;;;;;;;5055434;28;21078;-80
2023/01/31 13:46:20;;;;;;;17.38;3.45;;;;;;;;;;5053993;28;20061;-80
2023/01/31 13:48:51;;;;;;;17.80;3.22;;;;;;;;;;5052349;28;20080;-80
2023/01/31 13:51:27;;;;;;;17.38;3.63;;;;;;;;;;5053952;28;20607;-81
2023/01/31 13:54:06;;;;;;;12.40;3.95;;;;;;;;;;5038449;28;20499;-80
2023/01/31 13:56:34;;;;;;;18.77;3.30;;;;;;;;;;5046277;28;20057;-80
2023/01/31 13:59:00;;;;;;;15.95;3.65;;;;;;;;;;5053962;28;20440;-82
2023/01/31 14:01:33;;;;;;;14.48;3.22;;;;;;;;;;5055710;28;20045;-80
2023/01/31 14:04:13;;;;;;;19.75;3.60;;;;;;;;;;5058066;28;20152;-80
2023/01/31 14:06:52;;;;;;;27.23;4.65;;;;;;;;;;5054067;28;20038;-81
2023/01/31 14:09:22;;;;;;;16.38;2.97;;;;;;;;;;5053588;28;20107;-80
2023/01/31 14:11:48;;;;;;;12.57;2.65;;;;;;;;;;5037656;28;20484;-80
2023/01/31 14:14:19;;;;;;;13.15;3.00;;;;;;;;;;5051132;28;20053;-80
2023/01/31 14:16:47;;;;;;;14.80;3.20;;;;;;;;;;5055775;28;20133;-80
2023/01/31 14:19:22;;;;;;;16.35;3.40;;;;;;;;;;5057485;28;20059;-80
2023/01/31 14:21:51;;;;;;;15.65;2.47;;;;;;;;;;5050234;28;20057;-81
2023/01/31 14:24:36;;;;;;;15.80;2.70;;;;;;;;;;5049360;28;20049;-81
2023/01/31 14:27:09;;;;;;;13.57;2.45;;;;;;;;;;5046804;28;20089;-80
2023/01/31 14:29:40;;;;;;;11.70;2.55;;;;;;;;;;5050467;28;20140;-81
2023/01/31 14:32:12;;;;;;;13.73;3.10;;;;;;;;;;5050510;28;20058;-80
2023/01/31 14:34:39;;;;;;;9.25;2.83;;;;;;;;;;5050394;28;20060;-81
2023/01/31 14:37:24;;;;;;;8.35;2.40;;;;;;;;;;5054120;28;20076;-81
2023/01/31 14:40:08;;;;;;;11.95;2.45;;;;;;;;;;5048396;28;20057;-80
2023/01/31 14:42:37;;;;;;;12.73;2.55;;;;;;;;;;5053335;28;20100;-81
2023/01/31 14:45:22;;;;;;;10.75;2.72;;;;;;;;;;5052148;28;20818;-81
2023/01/31 14:47:52;;;;;;;11.88;1.92;;;;;;;;;;5054796;28;20053;-80
2023/01/31 14:50:30;;;;;;;11.70;2.20;;;;;;;;;;5040948;28;20057;-81
2023/01/31 14:52:57;;;;;;;10.10;1.10;;;;;;;;;;5049972;28;20063;-80
2023/01/31 14:55:23;;;;;;;10.60;2.20;;;;;;;;;;5054836;28;20537;-80